Time;durP1;ratioP1;P1;durP2;ratioP2;P2;SDS_P1;SDS_P2;PMS_P1;PMS_P2;Temp;Humidity;BMP_temperature;BMP_pressure;BME280_temperature;BME280_humidity;BME280_pressure;Samples;Min_cycle;Max_cycle;Signal;HPM_P1;HPM_P2
2023/05/31 00:01:10;;;;;;;1.33;0.50;;;11.60;99.90;;;;;;5041619;28;20033;-79
2023/05/31 00:03:35;;;;;;;1.17;0.40;;;11.60;99.90;;;;;;5008538;28;20061;-79
2023/05/31 00:06:01;;;;;;;2.25;0.60;;;11.60;99.90;;;;;;5010970;28;20025;-78
2023/05/31 00:08:27;;;;;;;1.55;0.70;;;11.50;99.90;;;;;;5005817;28;20040;-80
2023/05/31 00:10:53;;;;;;;2.33;1.08;;;11.50;99.90;;;;;;5006402;28;20033;-80
2023/05/31 00:13:18;;;;;;;1.88;0.70;;;11.40;99.90;;;;;;5010493;28;20045;-79
2023/05/31 00:15:44;;;;;;;1.77;0.60;;;11.40;99.90;;;;;;5007702;28;20076;-79
2023/05/31 00:18:09;;;;;;;1.55;0.60;;;11.50;99.90;;;;;;5015108;28;20482;-79
2023/05/31 00:20:35;;;;;;;1.85;0.68;;;11.40;99.90;;;;;;5038581;28;20033;-80
2023/05/31 00:23:01;;;;;;;1.95;0.60;;;11.40;99.90;;;;;;5007259;28;20033;-80
2023/05/31 00:25:27;;;;;;;1.45;0.50;;;11.40;99.90;;;;;;5025106;28;20382;-80
2023/05/31 00:27:55;;;;;;;2.13;0.50;;;11.40;99.90;;;;;;5018626;28;20029;-80
2023/05/31 00:30:20;;;;;;;1.70;0.50;;;11.40;99.90;;;;;;5013698;28;20045;-81
2023/05/31 00:32:47;;;;;;;3.70;0.70;;;11.40;99.90;;;;;;5011036;28;20545;-81
2023/05/31 00:35:13;;;;;;;2.28;0.85;;;11.30;99.90;;;;;;5008968;28;20109;-80
2023/05/31 00:37:38;;;;;;;1.70;0.70;;;11.30;99.90;;;;;;5026243;28;20474;-80
2023/05/31 00:40:05;;;;;;;2.80;0.60;;;11.30;99.90;;;;;;5017903;28;20076;-79
2023/05/31 00:42:32;;;;;;;2.47;0.60;;;11.30;99.90;;;;;;5025613;28;20033;-80
2023/05/31 00:44:57;;;;;;;1.80;0.60;;;11.20;99.90;;;;;;5005515;28;20056;-80
2023/05/31 00:47:25;;;;;;;1.92;0.57;;;11.20;99.90;;;;;;5024796;28;20026;-80
2023/05/31 00:49:52;;;;;;;1.13;0.50;;;11.20;99.90;;;;;;5024677;28;20072;-80
2023/05/31 00:52:18;;;;;;;1.58;0.50;;;11.20;99.90;;;;;;5026460;28;20021;-80
2023/05/31 00:54:43;;;;;;;2.72;0.70;;;11.20;99.90;;;;;;5006339;28;20032;-80
2023/05/31 00:57:10;;;;;;;2.60;0.70;;;11.10;99.90;;;;;;5010188;28;20026;-80
2023/05/31 00:59:36;;;;;;;1.67;0.77;;;11.10;99.90;;;;;;5010539;28;20044;-80
2023/05/31 01:02:06;;;;;;;2.67;0.68;;;11.20;99.90;;;;;;5010552;28;20040;-80
2023/05/31 01:04:32;;;;;;;1.40;0.50;;;11.00;99.90;;;;;;5019505;28;20171;-80
2023/05/31 01:07:00;;;;;;;1.63;0.57;;;11.00;99.90;;;;;;5007145;28;20390;-79
2023/05/31 01:09:26;;;;;;;1.38;0.55;;;11.10;99.90;;;;;;5005063;28;20061;-79
2023/05/31 01:12:02;;;;;;;1.73;0.77;;;10.90;99.90;;;;;;5008882;28;20040;-79
2023/05/31 01:15:01;;;;;;;1.92;0.70;;;11.00;99.90;;;;;;5010023;28;20041;-79
2023/05/31 01:17:39;;;;;;;2.38;0.85;;;11.00;99.90;;;;;;5022057;28;20076;-80
2023/05/31 01:20:11;;;;;;;1.50;0.50;;;10.90;99.90;;;;;;5024063;28;20084;-79
2023/05/31 01:22:56;;;;;;;1.90;0.60;;;10.90;99.90;;;;;;5007771;28;20033;-80
2023/05/31 01:25:31;;;;;;;1.50;0.55;;;10.90;99.90;;;;;;5024041;28;20068;-80
2023/05/31 01:27:59;;;;;;;2.08;0.73;;;10.80;99.90;;;;;;5023480;28;20121;-79
2023/05/31 01:30:28;;;;;;;1.73;0.50;;;10.80;99.90;;;;;;5022888;28;20026;-79
2023/05/31 01:32:57;;;;;;;2.05;0.70;;;10.80;99.90;;;;;;5010566;28;20120;-79
2023/05/31 01:35:23;;;;;;;3.92;1.13;;;10.80;99.90;;;;;;5012388;28;20034;-79
2023/05/31 01:37:48;;;;;;;3.05;0.60;;;10.80;99.90;;;;;;5009758;28;20037;-80
2023/05/31 01:40:16;;;;;;;2.75;1.30;;;10.80;99.90;;;;;;5012035;28;20034;-79
2023/05/31 01:42:45;;;;;;;2.78;1.20;;;10.80;99.90;;;;;;5007932;28;20034;-79
2023/05/31 01:45:15;;;;;;;3.03;0.85;;;10.70;99.90;;;;;;5028484;28;20037;-78
2023/05/31 01:47:42;;;;;;;3.05;0.90;;;10.70;99.90;;;;;;5029442;28;20079;-78
2023/05/31 01:50:12;;;;;;;2.10;0.80;;;10.60;99.90;;;;;;5027926;28;20034;-79
2023/05/31 01:52:39;;;;;;;2.60;0.80;;;10.60;99.90;;;;;;5034451;28;20045;-79
2023/05/31 01:55:05;;;;;;;2.00;0.80;;;10.70;99.90;;;;;;5012733;28;20516;-80
2023/05/31 01:57:34;;;;;;;1.77;0.60;;;10.60;99.90;;;;;;5030503;28;20026;-80
2023/05/31 02:00:00;;;;;;;2.13;0.70;;;10.60;99.90;;;;;;5025985;28;20392;-80
2023/05/31 02:02:30;;;;;;;2.25;0.75;;;10.60;99.90;;;;;;5043259;28;20425;-80
2023/05/31 02:05:11;;;;;;;3.47;1.35;;;10.60;99.90;;;;;;5022800;28;20037;-80
2023/05/31 02:07:37;;;;;;;2.80;0.68;;;10.50;99.90;;;;;;5027088;28;20040;-79
2023/05/31 02:10:03;;;;;;;3.28;0.95;;;10.50;99.90;;;;;;5012018;28;20033;-80
2023/05/31 02:12:33;;;;;;;2.28;0.60;;;10.50;99.90;;;;;;5009014;28;20490;-80
2023/05/31 02:14:58;;;;;;;2.00;0.70;;;10.50;99.90;;;;;;5009086;28;20132;-80
2023/05/31 02:17:24;;;;;;;3.15;0.98;;;10.50;99.90;;;;;;5024817;28;20033;-79
2023/05/31 02:19:53;;;;;;;2.78;1.00;;;10.50;99.90;;;;;;5011950;28;20033;-80
2023/05/31 02:22:20;;;;;;;2.70;0.88;;;10.40;99.90;;;;;;5026909;28;20033;-80
2023/05/31 02:24:45;;;;;;;2.28;0.90;;;10.50;99.90;;;;;;5027550;28;20034;-80
2023/05/31 02:27:12;;;;;;;2.25;0.70;;;10.50;99.90;;;;;;5012992;28;20025;-80
2023/05/31 02:29:38;;;;;;;2.35;0.90;;;10.50;99.90;;;;;;5011903;28;20025;-80
2023/05/31 02:32:04;;;;;;;2.50;0.90;;;10.40;99.90;;;;;;5013403;28;20559;-80
2023/05/31 02:34:30;;;;;;;1.83;0.70;;;10.40;99.90;;;;;;5029336;28;20025;-80
2023/05/31 02:36:56;;;;;;;3.00;1.40;;;10.40;99.90;;;;;;5042131;28;20026;-79
2023/05/31 02:39:22;;;;;;;3.70;1.95;;;10.30;99.90;;;;;;5021312;28;20354;-79
2023/05/31 02:41:47;;;;;;;2.88;1.15;;;10.30;99.90;;;;;;5006856;28;20029;-79
2023/05/31 02:44:13;;;;;;;3.67;1.27;;;10.30;99.90;;;;;;5025469;28;20425;-80
2023/05/31 02:46:39;;;;;;;3.17;1.33;;;10.30;99.90;;;;;;5024549;28;20112;-80
2023/05/31 02:49:06;;;;;;;3.17;1.30;;;10.30;99.90;;;;;;5012791;28;20141;-80
2023/05/31 02:51:32;;;;;;;2.67;1.30;;;10.20;99.90;;;;;;5010242;28;20316;-80
2023/05/31 02:54:33;;;;;;;3.72;1.65;;;10.20;99.90;;;;;;5025145;28;20436;-79
2023/05/31 02:56:59;;;;;;;3.67;1.35;;;10.20;99.90;;;;;;5036700;28;20033;-80
2023/05/31 02:59:27;;;;;;;3.85;1.38;;;10.20;99.90;;;;;;5011319;28;20021;-80
2023/05/31 03:01:58;;;;;;;4.47;2.08;;;10.20;99.90;;;;;;5011842;28;20029;-79
2023/05/31 03:04:41;;;;;;;4.53;1.95;;;10.20;99.90;;;;;;5026383;28;20124;-79
2023/05/31 03:07:07;;;;;;;3.75;2.05;;;10.20;99.90;;;;;;5020861;28;20029;-79
2023/05/31 03:09:34;;;;;;;5.45;1.83;;;10.10;99.90;;;;;;5012558;28;20362;-79
2023/05/31 03:12:02;;;;;;;4.63;2.00;;;10.10;99.90;;;;;;5012361;28;20049;-79
2023/05/31 03:14:29;;;;;;;4.18;1.88;;;10.10;99.90;;;;;;5022263;28;20045;-80
2023/05/31 03:16:55;;;;;;;3.72;1.30;;;10.10;99.90;;;;;;5029317;28;20025;-78
2023/05/31 03:19:21;;;;;;;4.00;1.27;;;10.10;99.90;;;;;;5011305;28;20025;-80
2023/05/31 03:21:49;;;;;;;3.92;1.98;;;10.10;99.90;;;;;;5010086;28;20446;-79
2023/05/31 03:24:15;;;;;;;3.40;1.92;;;10.00;99.90;;;;;;5039352;28;20045;-79
2023/05/31 03:26:42;;;;;;;4.55;2.50;;;10.00;99.90;;;;;;5011255;28;20062;-80
2023/05/31 03:29:08;;;;;;;3.67;1.58;;;10.10;99.90;;;;;;5008055;28;20034;-79
2023/05/31 03:31:34;;;;;;;4.40;2.95;;;10.00;99.90;;;;;;5026214;28;20053;-80
2023/05/31 03:34:00;;;;;;;4.75;2.13;;;10.00;99.90;;;;;;5008432;28;20038;-80
2023/05/31 03:36:26;;;;;;;3.20;2.13;;;10.00;99.90;;;;;;5010342;28;20025;-81
2023/05/31 03:38:52;;;;;;;4.03;2.38;;;10.00;99.90;;;;;;5010479;28;20037;-80
2023/05/31 03:41:17;;;;;;;4.28;1.95;;;10.00;99.90;;;;;;5023824;28;20025;-81
2023/05/31 03:43:43;;;;;;;3.40;1.80;;;10.00;99.90;;;;;;5008901;28;20068;-81
2023/05/31 03:46:09;;;;;;;3.95;1.83;;;10.10;99.90;;;;;;5008654;28;20022;-80
2023/05/31 03:48:35;;;;;;;4.13;2.45;;;10.10;99.90;;;;;;5024043;28;20103;-80
2023/05/31 03:51:01;;;;;;;4.05;1.95;;;10.00;99.90;;;;;;5008913;28;20030;-80
2023/05/31 03:53:28;;;;;;;4.85;2.45;;;10.00;99.90;;;;;;5009043;28;20084;-80
2023/05/31 03:55:53;;;;;;;3.65;1.85;;;10.10;99.90;;;;;;5009409;28;20025;-80
2023/05/31 03:58:20;;;;;;;8.00;2.95;;;10.00;99.90;;;;;;5025631;28;20029;-79
2023/05/31 04:00:46;;;;;;;3.72;1.40;;;10.00;99.90;;;;;;5010657;28;20219;-79
2023/05/31 04:03:12;;;;;;;3.78;1.75;;;10.00;99.90;;;;;;5010337;28;20237;-80
2023/05/31 04:05:39;;;;;;;6.80;3.15;;;10.00;99.90;;;;;;5010577;28;20128;-80
2023/05/31 04:08:06;;;;;;;5.72;3.17;;;10.00;99.90;;;;;;5025734;28;20068;-80
2023/05/31 04:10:33;;;;;;;5.28;2.83;;;10.00;99.90;;;;;;5008635;28;20075;-80
2023/05/31 04:12:59;;;;;;;4.97;3.08;;;10.10;99.90;;;;;;5027756;28;20045;-80
2023/05/31 04:15:26;;;;;;;5.60;3.20;;;10.10;99.90;;;;;;5012868;28;20033;-80
2023/05/31 04:17:56;;;;;;;6.00;4.00;;;10.10;99.90;;;;;;5011179;28;20033;-79
2023/05/31 04:20:22;;;;;;;6.72;3.75;;;10.10;99.90;;;;;;5014832;28;20025;-79
2023/05/31 04:22:49;;;;;;;5.30;2.70;;;10.10;99.90;;;;;;5026401;28;20361;-79
2023/05/31 04:25:17;;;;;;;3.95;2.05;;;10.20;99.90;;;;;;5010773;28;20033;-79
2023/05/31 04:27:43;;;;;;;5.28;2.50;;;10.20;99.90;;;;;;5024497;28;20465;-80
2023/05/31 04:30:09;;;;;;;5.40;2.65;;;10.30;99.90;;;;;;5021645;28;20036;-79
2023/05/31 04:32:35;;;;;;;5.38;2.53;;;10.40;99.90;;;;;;5021101;28;20033;-78
2023/05/31 04:35:03;;;;;;;5.22;2.75;;;10.50;99.90;;;;;;5030251;28;20056;-79
2023/05/31 04:37:30;;;;;;;3.80;2.58;;;10.50;99.90;;;;;;5040215;28;20027;-80
2023/05/31 04:39:58;;;;;;;9.45;4.80;;;10.60;99.90;;;;;;5025341;28;20521;-80
2023/05/31 04:42:25;;;;;;;6.85;3.90;;;10.60;99.90;;;;;;5018420;28;20111;-78
2023/05/31 04:44:57;;;;;;;7.65;4.55;;;10.70;99.90;;;;;;5013194;28;20057;-79
2023/05/31 04:47:27;;;;;;;8.18;4.20;;;10.70;99.90;;;;;;5040902;28;20029;-79
2023/05/31 04:49:57;;;;;;;5.32;3.45;;;10.90;99.90;;;;;;5014203;28;20068;-80
2023/05/31 04:52:28;;;;;;;7.22;4.22;;;10.90;99.90;;;;;;5012418;28;20081;-80
2023/05/31 04:54:55;;;;;;;9.40;5.13;;;10.90;99.90;;;;;;5025199;28;20112;-80
2023/05/31 04:57:29;;;;;;;6.22;3.17;;;11.10;99.90;;;;;;5010366;28;20025;-80
2023/05/31 04:59:58;;;;;;;6.47;3.70;;;11.20;99.90;;;;;;5009833;28;20033;-79
2023/05/31 05:02:24;;;;;;;7.60;4.03;;;11.20;99.90;;;;;;5018257;28;20030;-80
2023/05/31 05:04:51;;;;;;;6.90;4.07;;;11.30;99.90;;;;;;5014104;28;20037;-81
2023/05/31 05:07:16;;;;;;;6.05;3.35;;;11.50;99.90;;;;;;5018822;28;20104;-80
2023/05/31 05:09:42;;;;;;;6.38;3.20;;;11.60;99.90;;;;;;5038811;28;20117;-81
2023/05/31 05:12:09;;;;;;;5.82;3.50;;;11.60;99.90;;;;;;5030793;28;20040;-81
2023/05/31 05:14:38;;;;;;;7.10;4.57;;;11.60;99.90;;;;;;5025249;28;20540;-80
2023/05/31 05:17:04;;;;;;;10.18;6.15;;;11.70;99.90;;;;;;5032980;28;20021;-79
2023/05/31 05:19:29;;;;;;;9.52;5.50;;;11.70;99.90;;;;;;5012190;28;20121;-79
2023/05/31 05:21:55;;;;;;;6.68;4.60;;;11.80;99.90;;;;;;5003713;28;20029;-79
2023/05/31 05:24:22;;;;;;;7.18;4.57;;;12.10;99.90;;;;;;5003247;28;20090;-80
2023/05/31 05:26:47;;;;;;;6.50;3.70;;;12.10;99.90;;;;;;5019994;28;20035;-80
2023/05/31 05:29:13;;;;;;;8.68;4.20;;;12.30;99.90;;;;;;5010056;28;20083;-80
2023/05/31 05:31:39;;;;;;;9.02;6.32;;;12.30;99.90;;;;;;5011245;28;20525;-79
2023/05/31 05:34:05;;;;;;;9.75;5.28;;;12.10;99.90;;;;;;5009549;28;20029;-80
2023/05/31 05:36:31;;;;;;;7.65;4.60;;;12.20;99.90;;;;;;5018122;28;20403;-78
2023/05/31 05:39:04;;;;;;;8.60;5.25;;;12.50;99.90;;;;;;5026640;28;20029;-78
2023/05/31 05:41:30;;;;;;;8.13;5.22;;;12.50;99.90;;;;;;5018230;28;20029;-80
2023/05/31 05:43:57;;;;;;;8.25;5.40;;;12.60;99.90;;;;;;5024559;28;20552;-81
2023/05/31 05:46:23;;;;;;;8.93;5.97;;;12.70;99.90;;;;;;5018580;28;20029;-80
2023/05/31 05:48:48;;;;;;;10.88;4.55;;;12.80;99.90;;;;;;5018844;28;20339;-79
2023/05/31 05:51:22;;;;;;;8.05;4.38;;;13.00;99.90;;;;;;5035745;28;20029;-79
2023/05/31 05:53:48;;;;;;;8.05;4.70;;;13.10;99.90;;;;;;5034083;28;20047;-78
2023/05/31 05:56:19;;;;;;;7.35;4.30;;;13.30;99.90;;;;;;5035682;28;20033;-78
2023/05/31 05:58:52;;;;;;;7.60;4.80;;;13.50;99.90;;;;;;5001968;28;20510;-79
2023/05/31 06:01:38;;;;;;;12.25;6.10;;;13.70;99.90;;;;;;5029470;28;20033;-79
2023/05/31 06:04:06;;;;;;;10.13;7.15;;;13.70;99.90;;;;;;5016500;28;20651;-78
2023/05/31 06:06:32;;;;;;;11.25;7.70;;;13.70;99.90;;;;;;5001964;28;20056;-77
2023/05/31 06:08:58;;;;;;;11.10;6.00;;;13.70;99.90;;;;;;5026807;28;20041;-78
2023/05/31 06:11:25;;;;;;;9.95;6.18;;;14.10;99.90;;;;;;5036735;28;20071;-78
2023/05/31 06:13:56;;;;;;;13.35;7.60;;;14.20;99.90;;;;;;5006506;28;20411;-80
2023/05/31 06:16:23;;;;;;;10.45;7.45;;;14.10;99.90;;;;;;5009761;28;20041;-79
2023/05/31 06:18:49;;;;;;;12.38;6.38;;;14.30;99.90;;;;;;5013561;28;20544;-78
2023/05/31 06:21:16;;;;;;;11.85;6.75;;;14.70;99.90;;;;;;5024838;28;20033;-78
2023/05/31 06:23:42;;;;;;;11.45;6.72;;;14.80;99.90;;;;;;5001021;28;20476;-77
2023/05/31 06:26:08;;;;;;;10.48;6.10;;;14.80;99.90;;;;;;5016411;28;20025;-77
2023/05/31 06:28:34;;;;;;;11.63;7.53;;;14.80;99.90;;;;;;5002243;28;20115;-78
2023/05/31 06:31:03;;;;;;;11.43;6.90;;;14.80;99.90;;;;;;5023176;28;20035;-79
2023/05/31 06:33:28;;;;;;;11.90;6.55;;;15.20;99.90;;;;;;5001459;28;20047;-79
2023/05/31 06:35:54;;;;;;;10.32;5.38;;;15.30;99.90;;;;;;5008968;28;20037;-79
2023/05/31 06:38:21;;;;;;;7.15;4.47;;;15.60;99.90;;;;;;5036585;28;20041;-79
2023/05/31 06:40:47;;;;;;;9.10;4.80;;;15.90;99.90;;;;;;5019590;28;20032;-78
2023/05/31 06:43:15;;;;;;;9.57;5.80;;;15.90;99.90;;;;;;5027619;28;20048;-78
2023/05/31 06:46:12;;;;;;;11.85;7.28;;;16.00;99.90;;;;;;5015888;28;20422;-80
2023/05/31 06:48:57;;;;;;;10.40;6.00;;;15.80;99.90;;;;;;5028091;28;20466;-80
2023/05/31 06:51:57;;;;;;;8.07;5.10;;;16.00;99.90;;;;;;5036515;28;20055;-79
2023/05/31 06:54:29;;;;;;;9.90;5.25;;;16.30;99.90;;;;;;5025086;28;20694;-79
2023/05/31 06:56:56;;;;;;;9.35;5.78;;;16.40;99.90;;;;;;5000435;28;20037;-79
2023/05/31 06:59:22;;;;;;;6.35;4.63;;;16.50;99.90;;;;;;5000674;28;20508;-80
2023/05/31 07:01:48;;;;;;;6.20;4.63;;;16.80;99.90;;;;;;5017491;28;20496;-78
2023/05/31 07:04:13;;;;;;;9.18;5.20;;;16.80;99.90;;;;;;5036667;28;20117;-79
2023/05/31 07:06:41;;;;;;;8.00;4.70;;;17.10;99.90;;;;;;5024772;28;20071;-79
2023/05/31 07:09:06;;;;;;;8.52;4.78;;;17.30;99.90;;;;;;5010116;28;20476;-80
2023/05/31 07:11:50;;;;;;;9.77;5.65;;;16.80;99.90;;;;;;5017045;28;20468;-78
2023/05/31 07:14:15;;;;;;;9.07;5.20;;;17.10;99.90;;;;;;5032342;28;20052;-80
2023/05/31 07:16:41;;;;;;;9.20;5.45;;;17.20;99.90;;;;;;5009288;28;20128;-80
2023/05/31 07:19:07;;;;;;;7.82;4.97;;;17.20;99.90;;;;;;4990056;28;20182;-80
2023/05/31 07:21:32;;;;;;;6.13;3.58;;;17.20;99.90;;;;;;5008249;28;20128;-80
2023/05/31 07:23:58;;;;;;;6.75;4.88;;;17.90;99.90;;;;;;5016457;28;20093;-80
2023/05/31 07:26:24;;;;;;;7.32;4.40;;;17.70;99.90;;;;;;5016761;28;20039;-80
2023/05/31 07:28:53;;;;;;;9.65;5.38;;;18.00;99.90;;;;;;5007894;28;20037;-80
2023/05/31 07:31:20;;;;;;;6.22;4.03;;;17.60;99.90;;;;;;5005078;28;20190;-81
2023/05/31 07:33:45;;;;;;;9.13;5.43;;;17.90;99.90;;;;;;5010828;28;20418;-80
2023/05/31 07:36:11;;;;;;;8.45;5.25;;;17.40;99.90;;;;;;5005119;28;20364;-80
2023/05/31 07:38:37;;;;;;;10.05;4.80;;;17.50;99.90;;;;;;5022498;28;20122;-79
2023/05/31 07:41:03;;;;;;;6.43;4.22;;;17.70;99.90;;;;;;5024237;28;20863;-79
2023/05/31 07:43:29;;;;;;;6.07;3.95;;;18.00;99.90;;;;;;5025297;28;20040;-80
2023/05/31 07:45:56;;;;;;;5.28;3.75;;;18.30;99.90;;;;;;4998768;28;20913;-80
2023/05/31 07:48:23;;;;;;;5.00;3.10;;;18.50;99.90;;;;;;5007533;28;20090;-81
2023/05/31 07:50:49;;;;;;;5.80;3.10;;;18.60;99.90;;;;;;4999127;28;20094;-79
2023/05/31 07:53:15;;;;;;;5.57;3.15;;;18.80;99.90;;;;;;5016550;28;20029;-79
2023/05/31 07:55:41;;;;;;;5.65;3.15;;;19.20;99.90;;;;;;4998612;28;20033;-81
2023/05/31 07:58:06;;;;;;;5.80;3.70;;;19.00;99.90;;;;;;4999388;28;20037;-80
2023/05/31 08:00:32;;;;;;;6.65;3.08;;;18.90;99.90;;;;;;5016360;28;20040;-80
2023/05/31 08:02:58;;;;;;;4.93;2.50;;;19.60;99.90;;;;;;5033129;28;20037;-80
2023/05/31 08:05:24;;;;;;;6.55;3.67;;;19.50;99.90;;;;;;5022437;28;20142;-80
2023/05/31 08:07:51;;;;;;;6.93;3.30;;;19.50;99.90;;;;;;5006793;28;20354;-80
2023/05/31 08:10:17;;;;;;;6.88;3.83;;;19.50;99.90;;;;;;5033074;28;20048;-80
2023/05/31 08:12:43;;;;;;;5.25;2.60;;;19.10;99.90;;;;;;5024225;28;20032;-80
2023/05/31 08:15:11;;;;;;;7.43;3.88;;;19.80;99.90;;;;;;4998623;28;20072;-81
2023/05/31 08:17:36;;;;;;;6.35;3.00;;;19.90;99.90;;;;;;5015685;28;20158;-80
2023/05/31 08:20:06;;;;;;;4.43;2.97;;;19.70;99.90;;;;;;5005982;28;20068;-80
2023/05/31 08:22:32;;;;;;;4.50;2.25;;;19.90;99.90;;;;;;5032636;28;20539;-80
2023/05/31 08:24:58;;;;;;;4.38;2.90;;;20.20;99.90;;;;;;5031613;28;20064;-80
2023/05/31 08:27:24;;;;;;;4.57;1.77;;;20.30;99.90;;;;;;5007148;28;20057;-81
2023/05/31 08:29:50;;;;;;;4.80;2.63;;;20.40;99.90;;;;;;5007817;28;20480;-81
2023/05/31 08:32:17;;;;;;;9.27;4.15;;;20.20;99.90;;;;;;5001415;28;20039;-81
2023/05/31 08:34:45;;;;;;;7.90;3.85;;;20.30;99.90;;;;;;5013520;28;21382;-82
2023/05/31 08:37:11;;;;;;;6.00;2.65;;;20.10;99.90;;;;;;5015605;28;20037;-80
2023/05/31 08:39:36;;;;;;;7.35;3.30;;;20.60;99.90;;;;;;5005964;28;20056;-82
2023/05/31 08:42:05;;;;;;;6.50;3.30;;;20.50;99.90;;;;;;5023766;28;20055;-80
2023/05/31 08:44:31;;;;;;;6.95;3.90;;;20.60;99.90;;;;;;5014664;28;20052;-79
2023/05/31 08:47:11;;;;;;;6.22;2.88;;;20.60;99.90;;;;;;5033297;28;20033;-81
2023/05/31 08:49:37;;;;;;;7.05;3.22;;;20.90;99.90;;;;;;5022266;28;20142;-80
2023/05/31 08:52:03;;;;;;;5.10;2.92;;;20.70;99.90;;;;;;5006175;28;20041;-81
2023/05/31 08:54:29;;;;;;;6.50;2.47;;;20.60;99.90;;;;;;5014985;28;20041;-81
2023/05/31 08:56:55;;;;;;;5.03;2.17;;;21.10;99.90;;;;;;5022551;28;20402;-82
2023/05/31 08:59:22;;;;;;;5.40;2.58;;;21.70;99.90;;;;;;5008853;28;20025;-80
2023/05/31 09:01:49;;;;;;;5.28;2.83;;;21.40;99.90;;;;;;4999473;28;20539;-81
2023/05/31 09:04:15;;;;;;;4.30;1.85;;;21.40;99.90;;;;;;5023288;28;20413;-81
2023/05/31 09:06:41;;;;;;;4.43;1.30;;;22.10;99.90;;;;;;5006580;28;20048;-80
2023/05/31 09:09:08;;;;;;;6.18;1.52;;;22.40;99.90;;;;;;5024305;28;20028;-81
2023/05/31 09:11:40;;;;;;;3.13;0.90;;;22.20;99.90;;;;;;5015750;28;20513;-81
2023/05/31 09:14:09;;;;;;;5.25;1.70;;;22.40;99.90;;;;;;5022292;28;20529;-81
2023/05/31 09:16:35;;;;;;;3.92;1.45;;;22.40;99.90;;;;;;5024895;28;20116;-80
2023/05/31 09:19:03;;;;;;;5.68;2.03;;;22.10;99.90;;;;;;4981248;28;20057;-81
2023/05/31 09:21:29;;;;;;;4.43;1.60;;;22.10;99.90;;;;;;5007599;28;20039;-83
2023/05/31 09:23:59;;;;;;;5.90;2.20;;;22.70;99.90;;;;;;5005994;28;20040;-81
2023/05/31 09:26:25;;;;;;;3.90;1.73;;;22.40;99.90;;;;;;5031745;28;20147;-82
2023/05/31 09:28:55;;;;;;;4.97;1.52;;;22.70;99.90;;;;;;5032170;28;20114;-81
2023/05/31 09:31:21;;;;;;;5.63;2.20;;;22.80;99.90;;;;;;5015093;28;20127;-81
2023/05/31 09:33:48;;;;;;;5.82;1.50;;;23.10;99.90;;;;;;5006477;28;20025;-81
2023/05/31 09:36:27;;;;;;;4.25;1.48;;;22.90;99.90;;;;;;5029505;28;20401;-81
2023/05/31 09:39:00;;;;;;;3.78;0.98;;;22.80;99.90;;;;;;5030979;28;20389;-82
2023/05/31 09:41:27;;;;;;;4.63;0.93;;;23.30;99.90;;;;;;5015560;28;20709;-83
2023/05/31 09:43:53;;;;;;;5.13;0.88;;;23.10;99.90;;;;;;5032821;28;20032;-82
2023/05/31 09:46:21;;;;;;;6.18;0.90;;;23.30;99.90;;;;;;5030962;28;20489;-82
2023/05/31 09:48:57;;;;;;;3.58;0.73;;;23.50;99.90;;;;;;5014882;28;20507;-82
2023/05/31 09:51:23;;;;;;;3.05;0.80;;;23.40;99.90;;;;;;5006453;28;20091;-81
2023/05/31 09:53:55;;;;;;;1.77;0.70;;;23.60;99.90;;;;;;5016104;28;20524;-82
2023/05/31 09:56:22;;;;;;;2.38;0.75;;;24.10;99.90;;;;;;5036167;28;20118;-82
2023/05/31 09:58:52;;;;;;;2.55;0.70;;;23.90;99.90;;;;;;5011506;28;20033;-80
2023/05/31 10:01:21;;;;;;;2.58;0.60;;;23.90;99.90;;;;;;5011520;28;20037;-82
2023/05/31 10:03:49;;;;;;;2.10;0.50;;;24.20;99.90;;;;;;5010401;28;20450;-81
2023/05/31 10:06:19;;;;;;;2.42;0.57;;;24.30;99.90;;;;;;5005634;28;20412;-81
2023/05/31 10:08:46;;;;;;;2.15;0.60;;;24.30;99.90;;;;;;5000982;28;20470;-82
2023/05/31 10:11:16;;;;;;;1.70;0.50;;;24.10;99.90;;;;;;5011114;28;20037;-82
2023/05/31 10:13:44;;;;;;;1.52;0.40;;;24.30;99.90;;;;;;5018747;28;20049;-81
2023/05/31 10:16:11;;;;;;;1.80;0.40;;;24.70;99.90;;;;;;5024889;28;20044;-83
2023/05/31 10:18:40;;;;;;;1.95;0.40;;;24.60;99.90;;;;;;5000652;28;20845;-81
2023/05/31 10:21:12;;;;;;;2.72;0.50;;;24.50;99.90;;;;;;5010074;28;20033;-81
2023/05/31 10:23:48;;;;;;;2.70;0.60;;;24.50;99.90;;;;;;5009941;28;20041;-82
2023/05/31 10:26:17;;;;;;;1.75;0.50;;;24.80;99.90;;;;;;5007816;28;20072;-82
2023/05/31 10:28:59;;;;;;;1.63;0.40;;;24.90;99.90;;;;;;5035643;28;20162;-82
2023/05/31 10:31:39;;;;;;;3.17;0.50;;;24.60;99.90;;;;;;5018922;28;20029;-83
2023/05/31 10:34:22;;;;;;;1.77;0.50;;;24.70;99.90;;;;;;5016813;28;20043;-82
2023/05/31 10:36:52;;;;;;;2.00;0.30;;;24.90;99.90;;;;;;5009724;28;20056;-82
2023/05/31 10:39:34;;;;;;;2.42;0.50;;;25.10;99.90;;;;;;5027006;28;20051;-82
2023/05/31 10:42:27;;;;;;;2.25;0.40;;;25.00;99.90;;;;;;5027791;28;20477;-83
2023/05/31 10:45:05;;;;;;;5.88;0.70;;;24.40;99.90;;;;;;5025426;28;20140;-83
2023/05/31 10:47:50;;;;;;;2.55;0.60;;;23.80;99.90;;;;;;5003713;28;20021;-85
2023/05/31 10:50:20;;;;;;;5.50;0.50;;;24.60;99.90;;;;;;5010922;28;20108;-83
2023/05/31 10:53:10;;;;;;;3.28;0.40;;;24.70;99.90;;;;;;5014818;28;20068;-84
2023/05/31 10:55:43;;;;;;;3.28;0.55;;;24.80;99.90;;;;;;5027187;28;20036;-84
2023/05/31 10:58:38;;;;;;;1.48;0.40;;;24.40;99.90;;;;;;5002896;28;20036;-83
2023/05/31 11:01:13;;;;;;;2.65;0.40;;;25.10;99.90;;;;;;5010212;28;20060;-85
2023/05/31 11:03:46;;;;;;;4.55;0.70;;;25.40;99.90;;;;;;5015669;28;20061;-84
2023/05/31 11:06:14;;;;;;;3.85;0.50;;;24.50;99.90;;;;;;5012733;28;20025;-83
2023/05/31 11:09:11;;;;;;;2.25;0.40;;;24.70;99.90;;;;;;5030729;28;20032;-84
2023/05/31 11:11:39;;;;;;;2.35;0.40;;;24.90;99.90;;;;;;5012007;28;20033;-84
2023/05/31 11:14:10;;;;;;;2.72;0.60;;;25.40;99.90;;;;;;5028383;28;20080;-82
2023/05/31 11:16:48;;;;;;;2.53;0.40;;;25.20;99.90;;;;;;5026815;28;20025;-84
2023/05/31 11:19:16;;;;;;;3.50;0.50;;;25.20;99.90;;;;;;5010796;28;20543;-84
2023/05/31 11:21:47;;;;;;;2.45;0.50;;;25.40;99.90;;;;;;5010795;28;20339;-83
2023/05/31 11:24:31;;;;;;;1.75;0.40;;;25.70;99.90;;;;;;5013645;28;20041;-83
2023/05/31 11:27:01;;;;;;;2.47;0.50;;;25.80;99.90;;;;;;5027359;28;20059;-84
2023/05/31 11:29:53;;;;;;;2.20;0.60;;;25.00;99.90;;;;;;5028506;28;20066;-84
2023/05/31 11:32:42;;;;;;;3.20;0.40;;;25.20;99.90;;;;;;5027282;28;20037;-83
2023/05/31 11:35:15;;;;;;;2.28;0.40;;;25.20;99.90;;;;;;5023256;28;20477;-84
2023/05/31 11:37:42;;;;;;;3.38;0.50;;;25.50;99.90;;;;;;5027905;28;20078;-83
2023/05/31 11:40:14;;;;;;;1.40;0.40;;;24.90;99.90;;;;;;5025025;28;20029;-83
2023/05/31 11:42:41;;;;;;;2.65;0.52;;;25.10;99.90;;;;;;5011824;28;20501;-84
2023/05/31 11:45:12;;;;;;;4.05;0.40;;;25.70;99.90;;;;;;5023051;28;20097;-83
2023/05/31 11:47:43;;;;;;;2.60;0.50;;;25.60;99.90;;;;;;5042611;28;20029;-84
2023/05/31 11:50:13;;;;;;;2.40;0.40;;;25.80;99.90;;;;;;5030377;28;20025;-83
2023/05/31 11:52:40;;;;;;;2.08;0.30;;;25.60;99.90;;;;;;5025352;28;20436;-84
2023/05/31 11:55:07;;;;;;;2.90;0.43;;;26.00;99.90;;;;;;5042440;28;20108;-84
2023/05/31 11:57:46;;;;;;;2.47;0.77;;;25.60;99.90;;;;;;5027050;28;20100;-84
2023/05/31 12:00:15;;;;;;;3.60;0.52;;;25.00;99.90;;;;;;5026457;28;20037;-84
2023/05/31 12:02:47;;;;;;;3.08;0.50;;;25.10;99.90;;;;;;5016483;28;20044;-84
2023/05/31 12:05:13;;;;;;;2.72;0.50;;;24.80;99.90;;;;;;5011688;28;20128;-84
2023/05/31 12:07:39;;;;;;;2.15;0.40;;;25.20;99.90;;;;;;5033753;28;20025;-84
2023/05/31 12:10:06;;;;;;;3.95;0.40;;;25.30;99.90;;;;;;5014148;28;20025;-84
2023/05/31 12:12:32;;;;;;;3.33;0.50;;;25.40;99.90;;;;;;5008429;28;20024;-82
2023/05/31 12:15:01;;;;;;;3.72;0.73;;;25.70;99.90;;;;;;5027701;28;20545;-83
2023/05/31 12:17:33;;;;;;;3.67;0.57;;;25.90;99.90;;;;;;5023064;28;20089;-82
2023/05/31 12:20:00;;;;;;;3.03;0.50;;;25.70;99.90;;;;;;5022573;28;20224;-84
2023/05/31 12:22:26;;;;;;;3.20;0.55;;;25.40;99.90;;;;;;5023120;28;20544;-85
2023/05/31 12:24:54;;;;;;;1.50;0.40;;;25.80;99.90;;;;;;5014758;28;20049;-85
2023/05/31 12:27:22;;;;;;;3.30;0.50;;;26.00;99.90;;;;;;5026075;28;20544;-83
2023/05/31 12:29:48;;;;;;;3.45;0.50;;;25.80;99.90;;;;;;5022137;28;20052;-84
2023/05/31 12:32:19;;;;;;;1.73;0.40;;;25.90;99.90;;;;;;5019823;28;21037;-86
2023/05/31 12:34:45;;;;;;;3.55;0.40;;;25.80;99.90;;;;;;5013521;28;20585;-84
2023/05/31 12:37:10;;;;;;;3.50;0.40;;;25.90;99.90;;;;;;5013275;28;20060;-85
2023/05/31 12:39:37;;;;;;;1.85;0.30;;;25.70;99.90;;;;;;5028689;28;20052;-86
2023/05/31 12:42:05;;;;;;;5.20;0.82;;;25.40;99.90;;;;;;5025420;28;20037;-85
2023/05/31 12:44:32;;;;;;;4.18;0.60;;;24.60;99.90;;;;;;5040648;28;20478;-86
2023/05/31 12:47:02;;;;;;;3.28;0.50;;;25.40;99.90;;;;;;5013051;28;20040;-87
2023/05/31 12:49:30;;;;;;;2.85;0.40;;;25.40;99.90;;;;;;5027865;28;20048;-85
2023/05/31 12:52:04;;;;;;;2.38;0.40;;;26.10;99.90;;;;;;5012630;28;20436;-86
2023/05/31 12:54:32;;;;;;;2.30;0.38;;;26.10;99.90;;;;;;5020352;28;20098;-84